עמוד ראשי
תמונות לווין תחזית 15-יוםאקליםתחזית ים סופות טרופיות ברק שדות תעופהשאלות נפוצות עלון אודות
מזג אוויר : אירופה אפריקה אמריקה הצפונית אמריקה הדרומית אסיה אוסטרליה-אוקיאניה אחר
שפות איש קשר

זלצבורג, אוסטריה

קו רוחב: 47-48N, קו אורך: 013-00E, גובה: 430 m


METAR: LOWS 281850Z 03003KT 350V050 8000 SCT008 OVC009 03/02 Q1012 NOSIG
TAF: LOWS 281715Z 2818/2918 03003KT 8000 FEW007 BKN011 TX10/2912Z TN04/2904Z TEMPO 2818/2909 4000 BR FEW003 BKN004 PROB30 TEMPO 2911/2916 9999 FEW020

זמן: 20:03 (19:03 UTC)

תצפית מזג אוויר נוכחית

הדו"ח נערך לפני 13דקות, בשעה 18:50 UTC
רוח 3קשר מכיוון צפון/צפון-מזרח, משתנה בין צפון ו צפון-מזרח
טמפרטורת 3°C
לחות 93%
לחץ 1012 hPa
ראות: 8000 m
עננים פזורים בגובה 800 רגל
מעונן בגובה 900 רגל

שינוי יחידות

תחזית

הדו"ח נערך לפני 1 שעות ו 48דקות, בשעה 17:15 UTC
תחזית בתוקף מ 28 ב 18 UTC עד 29 ב 18 UTC
רוח 3קשר מכיוון צפון/צפון-מזרח
ראות: 8000 m
מעט עננים בגובה 700 רגל
עננים בינוניים בגובה 1100 רגל
זמנית מ -
28 ב 18 UTC עד 29 ב 09 UTC
ראות: 4000 m
מעט עננים בגובה 300 רגל
עננים בינוניים בגובה 400 רגל
אד
הסתברות 30% :
זמנית מ -
29 ב 11 UTC עד 29 ב 16 UTC
ראות 10 קילומטר או יותר
מעט עננים בגובה 2000 רגל
המידע באתר זה מותנה של תניית פטור
מזג אוויר : אירופה אפריקה אמריקה הצפונית אמריקה הדרומית אסיה אוסטרליה-אוקיאניה אחר
תמונות לווין תחזית 15-יוםאקליםתחזית ים סופות טרופיות ברק שדות תעופהשאלות נפוצות שפות איש קשר עלון אודות